Time;durP1;ratioP1;P1;durP2;ratioP2;P2;SDS_P1;SDS_P2;PMS_P1;PMS_P2;Temp;Humidity;BMP_temperature;BMP_pressure;BME280_temperature;BME280_humidity;BME280_pressure;Samples;Min_cycle;Max_cycle;Signal;HPM_P1;HPM_P2
2022/07/23 00:01:12;;;;;;;4.80;2.53;;;14.20;99.90;;;;;;5035282;28;20293;-76
2022/07/23 00:03:38;;;;;;;2.47;2.27;;;14.20;99.90;;;;;;5034773;28;20811;-77
2022/07/23 00:06:06;;;;;;;2.63;2.43;;;14.20;99.90;;;;;;5025965;28;20222;-76
2022/07/23 00:08:32;;;;;;;2.30;2.20;;;14.10;99.90;;;;;;5015080;28;20202;-77
2022/07/23 00:11:01;;;;;;;2.17;2.00;;;14.10;99.90;;;;;;5015097;28;20212;-76
2022/07/23 00:13:28;;;;;;;2.67;2.33;;;14.10;99.90;;;;;;5014508;28;20595;-75
2022/07/23 00:15:55;;;;;;;2.90;2.50;;;14.10;99.90;;;;;;5015594;28;20592;-76
2022/07/23 00:18:22;;;;;;;2.60;2.40;;;14.00;99.90;;;;;;5015159;28;20499;-77
2022/07/23 00:20:49;;;;;;;3.17;2.67;;;14.00;99.90;;;;;;5034550;28;20232;-77
2022/07/23 00:23:16;;;;;;;3.43;3.10;;;14.00;99.90;;;;;;5034718;28;20237;-76
2022/07/23 00:25:42;;;;;;;4.33;3.50;;;13.90;99.90;;;;;;5034515;28;20282;-78
2022/07/23 00:28:11;;;;;;;7.03;4.83;;;13.90;99.90;;;;;;5028077;28;20222;-77
2022/07/23 00:30:38;;;;;;;5.43;4.93;;;13.90;99.90;;;;;;5014973;28;20203;-77
2022/07/23 00:33:07;;;;;;;4.50;3.87;;;13.90;99.90;;;;;;5014809;28;20230;-76
2022/07/23 00:35:40;;;;;;;3.50;3.20;;;13.90;99.90;;;;;;5014445;28;20294;-76
2022/07/23 00:38:09;;;;;;;4.27;2.93;;;13.90;99.90;;;;;;5014620;28;20214;-77
2022/07/23 00:40:36;;;;;;;3.27;3.07;;;13.90;99.90;;;;;;5013657;28;20254;-76
2022/07/23 00:43:04;;;;;;;2.70;2.50;;;13.90;99.90;;;;;;5032967;28;20276;-76
2022/07/23 00:45:32;;;;;;;3.20;2.90;;;13.80;99.90;;;;;;5034472;28;20234;-78
2022/07/23 00:48:00;;;;;;;2.60;2.40;;;13.80;99.90;;;;;;5033622;28;20199;-78
2022/07/23 00:50:27;;;;;;;2.50;2.30;;;13.80;99.90;;;;;;5017222;28;20211;-80
2022/07/23 00:52:54;;;;;;;2.17;2.07;;;13.80;99.90;;;;;;5034586;28;20217;-76
2022/07/23 00:55:21;;;;;;;4.47;2.47;;;13.80;99.90;;;;;;5033021;28;20591;-77
2022/07/23 00:57:48;;;;;;;2.40;2.20;;;13.70;99.90;;;;;;5034255;28;20201;-76
2022/07/23 01:00:16;;;;;;;2.50;2.30;;;13.70;99.90;;;;;;5034424;28;20209;-77
2022/07/23 01:02:46;;;;;;;3.27;2.83;;;13.70;99.90;;;;;;5025256;28;20218;-76
2022/07/23 01:05:13;;;;;;;2.33;2.13;;;13.70;99.90;;;;;;5023097;28;20198;-76
2022/07/23 01:07:40;;;;;;;2.40;2.20;;;13.70;99.90;;;;;;5034148;28;20356;-77
2022/07/23 01:10:30;;;;;;;2.40;2.20;;;13.60;99.90;;;;;;5033352;28;20226;-76
2022/07/23 01:12:55;;;;;;;2.60;2.40;;;13.60;99.90;;;;;;5033001;28;20260;-76
2022/07/23 01:15:22;;;;;;;2.77;2.57;;;13.60;99.90;;;;;;5033923;28;20699;-76
2022/07/23 01:17:51;;;;;;;3.53;2.93;;;13.60;99.90;;;;;;5033236;28;20294;-78
2022/07/23 01:20:18;;;;;;;4.20;3.23;;;13.50;99.90;;;;;;5033227;28;20510;-77
2022/07/23 01:22:47;;;;;;;3.80;3.40;;;13.50;99.90;;;;;;5032345;28;20226;-79
2022/07/23 01:25:14;;;;;;;3.87;2.90;;;13.50;99.90;;;;;;5033524;28;20225;-76
2022/07/23 01:27:41;;;;;;;3.23;2.93;;;13.50;99.90;;;;;;5033932;28;20202;-77
2022/07/23 01:30:09;;;;;;;3.13;2.90;;;13.40;99.90;;;;;;5022573;28;20230;-76
2022/07/23 01:32:36;;;;;;;3.47;3.17;;;13.40;99.90;;;;;;5013561;28;20231;-77
2022/07/23 01:35:03;;;;;;;3.83;2.97;;;13.40;99.90;;;;;;5013592;28;20202;-78
2022/07/23 01:37:30;;;;;;;3.63;3.13;;;13.40;99.90;;;;;;5013116;28;20209;-77
2022/07/23 01:39:58;;;;;;;4.50;3.10;;;13.40;99.90;;;;;;5024238;28;20290;-76
2022/07/23 01:42:25;;;;;;;3.07;2.70;;;13.30;99.90;;;;;;5033325;28;20214;-76
2022/07/23 01:44:52;;;;;;;3.40;3.10;;;13.30;99.90;;;;;;5032495;28;20226;-76
2022/07/23 01:47:19;;;;;;;3.93;3.47;;;13.30;99.90;;;;;;5033291;28;20206;-76
2022/07/23 01:49:46;;;;;;;4.27;3.10;;;13.30;99.90;;;;;;5032077;28;20504;-76
2022/07/23 01:52:13;;;;;;;3.07;2.80;;;13.30;99.90;;;;;;5032147;28;20539;-78
2022/07/23 01:54:40;;;;;;;3.77;2.60;;;13.30;99.90;;;;;;5033315;28;20221;-76
2022/07/23 01:57:09;;;;;;;3.37;2.50;;;13.20;99.90;;;;;;5032912;28;20308;-76
2022/07/23 01:59:36;;;;;;;3.17;2.80;;;13.20;99.90;;;;;;5031811;28;20471;-76
2022/07/23 02:02:05;;;;;;;3.20;2.90;;;13.20;99.90;;;;;;5032239;28;20202;-76
2022/07/23 02:04:35;;;;;;;3.27;3.00;;;13.20;99.90;;;;;;5032987;28;20223;-76
2022/07/23 02:07:02;;;;;;;3.30;2.53;;;13.30;99.90;;;;;;5031978;28;20548;-76
2022/07/23 02:09:29;;;;;;;2.80;2.60;;;13.30;99.90;;;;;;5033108;28;20256;-76
2022/07/23 02:11:56;;;;;;;2.90;2.70;;;13.30;99.90;;;;;;5032473;28;20768;-76
2022/07/23 02:14:24;;;;;;;3.10;2.80;;;13.30;99.90;;;;;;5032639;28;20599;-75
2022/07/23 02:16:51;;;;;;;2.57;2.20;;;13.30;99.90;;;;;;5021853;28;20286;-77
2022/07/23 02:19:18;;;;;;;3.03;2.47;;;13.30;99.90;;;;;;5027343;28;20617;-77
2022/07/23 02:21:45;;;;;;;2.20;2.10;;;13.30;99.90;;;;;;5030428;28;20209;-76
2022/07/23 02:24:12;;;;;;;3.07;2.80;;;13.20;99.90;;;;;;5012748;28;20222;-76
2022/07/23 02:26:39;;;;;;;2.97;2.70;;;13.20;99.90;;;;;;5012306;28;20207;-77
2022/07/23 02:29:06;;;;;;;3.00;2.80;;;13.20;99.90;;;;;;5012556;28;20210;-78
2022/07/23 02:31:35;;;;;;;2.90;2.70;;;13.20;99.90;;;;;;5013151;28;20670;-79
2022/07/23 02:34:02;;;;;;;2.77;2.50;;;13.10;99.90;;;;;;5011871;28;20227;-76
2022/07/23 02:36:29;;;;;;;3.33;3.03;;;13.10;99.90;;;;;;5027354;28;20496;-76
2022/07/23 02:38:56;;;;;;;3.30;2.73;;;13.10;99.90;;;;;;5032753;28;20199;-76
2022/07/23 02:41:24;;;;;;;2.73;2.53;;;13.00;99.90;;;;;;5031805;28;20217;-77
2022/07/23 02:43:51;;;;;;;2.63;2.40;;;13.00;99.90;;;;;;5015770;28;20250;-76
2022/07/23 02:46:18;;;;;;;3.03;2.73;;;13.00;99.90;;;;;;5012934;28;20273;-77
2022/07/23 02:48:46;;;;;;;3.23;2.70;;;13.00;99.90;;;;;;5018968;28;20198;-76
2022/07/23 02:51:13;;;;;;;4.00;3.40;;;13.00;99.90;;;;;;5031125;28;20203;-76
2022/07/23 02:53:40;;;;;;;3.83;2.67;;;12.90;99.90;;;;;;5031445;28;20206;-76
2022/07/23 02:56:07;;;;;;;3.00;2.80;;;12.90;99.90;;;;;;5031505;28;20460;-77
2022/07/23 02:58:34;;;;;;;2.80;2.60;;;12.90;99.90;;;;;;5021359;28;20211;-77
2022/07/23 03:01:00;;;;;;;3.10;2.83;;;12.90;99.90;;;;;;5011844;28;20199;-79
2022/07/23 03:03:27;;;;;;;3.17;2.90;;;12.90;99.90;;;;;;5029527;28;20479;-76
2022/07/23 03:05:55;;;;;;;2.73;2.50;;;12.90;99.90;;;;;;5032267;28;20202;-77
2022/07/23 03:08:22;;;;;;;3.47;3.13;;;12.90;99.90;;;;;;5031226;28;20209;-77
2022/07/23 03:10:49;;;;;;;3.27;2.87;;;12.90;99.90;;;;;;5021373;28;20235;-78
2022/07/23 03:13:17;;;;;;;2.90;2.70;;;12.90;99.90;;;;;;5012324;28;20195;-76
2022/07/23 03:15:43;;;;;;;3.07;2.87;;;12.80;99.90;;;;;;5021457;28;20206;-76
2022/07/23 03:18:11;;;;;;;3.50;3.20;;;12.80;99.90;;;;;;5032248;28;20300;-77
2022/07/23 03:20:38;;;;;;;3.03;2.73;;;12.80;99.90;;;;;;5021223;28;20210;-76
2022/07/23 03:23:06;;;;;;;2.97;2.67;;;12.80;99.90;;;;;;5012001;28;20517;-76
2022/07/23 03:25:33;;;;;;;3.40;2.80;;;12.80;99.90;;;;;;5012949;28;20560;-78
2022/07/23 03:28:00;;;;;;;3.00;2.80;;;12.70;99.90;;;;;;5014988;28;20287;-77
2022/07/23 03:30:27;;;;;;;3.30;3.00;;;12.70;99.90;;;;;;5036377;28;20297;-77
2022/07/23 03:32:54;;;;;;;2.80;2.60;;;12.70;99.90;;;;;;5037721;28;20374;-77
2022/07/23 03:35:21;;;;;;;2.87;2.67;;;12.70;99.90;;;;;;5019535;28;20196;-77
2022/07/23 03:37:48;;;;;;;3.50;3.20;;;12.70;99.90;;;;;;5018515;28;20195;-77
2022/07/23 03:40:16;;;;;;;3.30;2.70;;;12.70;99.90;;;;;;5033420;28;20203;-78
2022/07/23 03:42:43;;;;;;;4.67;3.60;;;12.70;99.90;;;;;;5031884;28;20202;-77
2022/07/23 03:45:11;;;;;;;4.57;3.50;;;12.70;99.90;;;;;;5030829;28;20236;-76
2022/07/23 03:47:38;;;;;;;3.67;3.37;;;12.70;99.90;;;;;;5033947;28;20740;-76
2022/07/23 03:50:06;;;;;;;4.33;3.57;;;12.70;99.90;;;;;;5034539;28;20623;-77
2022/07/23 03:52:33;;;;;;;3.87;3.40;;;12.70;99.90;;;;;;5032236;28;20289;-76
2022/07/23 03:55:00;;;;;;;3.07;2.87;;;12.70;99.90;;;;;;5012928;28;20210;-76
2022/07/23 03:57:28;;;;;;;3.10;2.90;;;12.70;99.90;;;;;;5011406;28;20257;-77
2022/07/23 03:59:55;;;;;;;4.17;3.47;;;12.70;99.90;;;;;;5011766;28;20220;-78
2022/07/23 04:02:22;;;;;;;4.33;3.70;;;12.70;99.90;;;;;;5024993;28;20214;-77
2022/07/23 04:04:49;;;;;;;2.97;2.77;;;12.70;99.90;;;;;;5034376;28;20217;-78
2022/07/23 04:07:17;;;;;;;4.40;3.30;;;12.70;99.90;;;;;;5035174;28;20281;-76
2022/07/23 04:09:44;;;;;;;3.57;3.23;;;12.70;99.90;;;;;;5035192;28;20293;-78
2022/07/23 04:12:11;;;;;;;3.40;3.10;;;12.70;99.90;;;;;;5017426;28;20294;-78
2022/07/23 04:14:39;;;;;;;3.00;2.73;;;12.70;99.90;;;;;;5015023;28;20615;-79
2022/07/23 04:17:06;;;;;;;2.87;2.67;;;12.70;99.90;;;;;;5015592;28;20203;-79
2022/07/23 04:19:33;;;;;;;2.77;2.57;;;12.70;99.90;;;;;;5014331;28;20211;-78
2022/07/23 04:22:01;;;;;;;2.50;2.30;;;12.70;99.90;;;;;;5015400;28;20302;-79
2022/07/23 04:24:28;;;;;;;2.60;2.40;;;12.80;99.90;;;;;;5015016;28;20218;-78
2022/07/23 04:26:54;;;;;;;3.17;2.87;;;12.80;99.90;;;;;;5014077;28;20618;-78
2022/07/23 04:29:21;;;;;;;3.83;3.40;;;12.80;99.90;;;;;;5027961;28;20281;-78
2022/07/23 04:31:49;;;;;;;3.53;2.80;;;12.90;99.90;;;;;;5034616;28;20198;-78
2022/07/23 04:34:16;;;;;;;3.50;3.20;;;12.90;99.90;;;;;;5033935;28;20206;-78
2022/07/23 04:36:43;;;;;;;3.47;3.00;;;12.90;99.90;;;;;;5034651;28;20331;-79
2022/07/23 04:39:10;;;;;;;3.00;2.80;;;12.90;99.90;;;;;;5020978;28;20214;-78
2022/07/23 04:41:37;;;;;;;3.87;3.47;;;12.90;99.90;;;;;;5014134;28;20227;-78
2022/07/23 04:44:04;;;;;;;5.07;2.53;;;13.00;99.90;;;;;;5014710;28;20203;-79
2022/07/23 04:46:31;;;;;;;3.00;2.80;;;13.00;99.90;;;;;;5013784;28;20199;-78
2022/07/23 04:48:59;;;;;;;2.87;2.67;;;13.00;99.90;;;;;;5031292;28;20209;-79
2022/07/23 04:51:26;;;;;;;3.10;2.90;;;13.10;99.90;;;;;;5034188;28;20222;-77
2022/07/23 04:53:53;;;;;;;4.47;2.83;;;13.10;99.90;;;;;;5033621;28;20210;-79
2022/07/23 04:56:20;;;;;;;4.37;2.90;;;13.10;99.90;;;;;;5033867;28;20201;-78
2022/07/23 04:58:46;;;;;;;3.87;2.70;;;13.20;99.90;;;;;;5034290;28;20282;-79
2022/07/23 05:01:13;;;;;;;2.57;2.37;;;13.20;99.90;;;;;;5033843;28;20498;-79
2022/07/23 05:03:40;;;;;;;3.00;2.80;;;13.30;99.90;;;;;;5034031;28;20187;-79
2022/07/23 05:06:09;;;;;;;3.17;2.60;;;13.30;99.90;;;;;;5028447;28;20225;-78
2022/07/23 05:08:36;;;;;;;2.40;2.20;;;13.40;99.90;;;;;;5013817;28;20210;-79
2022/07/23 05:11:02;;;;;;;2.37;2.17;;;13.40;99.90;;;;;;5014303;28;20287;-77
2022/07/23 05:13:29;;;;;;;2.90;2.60;;;13.50;99.90;;;;;;5013158;28;20196;-79
2022/07/23 05:15:56;;;;;;;3.20;2.83;;;13.60;99.90;;;;;;5028561;28;20199;-78
2022/07/23 05:18:23;;;;;;;3.57;2.67;;;13.60;99.90;;;;;;5033147;28;20701;-77
2022/07/23 05:20:50;;;;;;;3.20;2.57;;;13.60;99.90;;;;;;5033693;28;20481;-77
2022/07/23 05:23:18;;;;;;;3.40;2.30;;;13.70;99.90;;;;;;5039089;22;20437;-78
2022/07/23 05:25:45;;;;;;;2.53;2.33;;;13.80;99.90;;;;;;5033587;28;20727;-77
2022/07/23 05:28:12;;;;;;;2.60;2.40;;;13.80;99.90;;;;;;5032979;28;20512;-77
2022/07/23 05:30:39;;;;;;;2.70;2.50;;;13.90;99.90;;;;;;5032643;28;20304;-77
2022/07/23 05:33:07;;;;;;;2.80;2.30;;;14.00;99.90;;;;;;5033595;28;20273;-77
2022/07/23 05:35:34;;;;;;;2.87;2.00;;;14.10;99.90;;;;;;5031913;28;20235;-77
2022/07/23 05:38:01;;;;;;;2.53;2.33;;;14.20;99.90;;;;;;5032821;28;20206;-78
2022/07/23 05:40:29;;;;;;;3.00;2.40;;;14.40;99.90;;;;;;5030520;28;20215;-77
2022/07/23 05:42:56;;;;;;;2.50;2.30;;;14.60;99.90;;;;;;5012143;28;20254;-78
2022/07/23 05:45:23;;;;;;;2.57;2.37;;;14.70;99.90;;;;;;5013413;28;20219;-77
2022/07/23 05:47:50;;;;;;;2.00;1.90;;;14.90;99.90;;;;;;5013766;28;20195;-77
2022/07/23 05:50:18;;;;;;;3.50;2.63;;;14.90;99.90;;;;;;5012155;28;20207;-78
2022/07/23 05:52:45;;;;;;;4.10;2.57;;;15.10;99.90;;;;;;5013446;28;20517;-80
2022/07/23 05:55:13;;;;;;;2.67;1.80;;;15.20;99.90;;;;;;5013008;28;20196;-79
2022/07/23 05:57:41;;;;;;;2.87;2.67;;;15.20;99.90;;;;;;5011513;28;20603;-77
2022/07/23 06:00:10;;;;;;;3.67;2.80;;;15.40;99.90;;;;;;5013012;28;20245;-77
2022/07/23 06:02:38;;;;;;;3.10;2.20;;;15.50;99.90;;;;;;5012152;28;20242;-77
2022/07/23 06:05:07;;;;;;;3.23;2.00;;;15.60;99.90;;;;;;5012505;28;20657;-78
2022/07/23 06:07:34;;;;;;;3.00;1.97;;;15.70;99.90;;;;;;5012512;28;20203;-77
2022/07/23 06:10:01;;;;;;;2.50;1.90;;;15.80;99.90;;;;;;5012622;28;20199;-78
2022/07/23 06:12:28;;;;;;;3.20;1.80;;;16.00;99.90;;;;;;5011839;28;20203;-78
2022/07/23 06:14:56;;;;;;;2.45;1.90;;;16.10;99.90;;;;;;5012725;28;20518;-78
2022/07/23 06:17:23;;;;;;;1.80;1.70;;;16.20;99.90;;;;;;5023313;22;20321;-77
2022/07/23 06:19:50;;;;;;;2.90;1.80;;;16.30;99.90;;;;;;5031936;28;20206;-78
2022/07/23 06:22:17;;;;;;;3.42;1.70;;;16.30;99.90;;;;;;5031546;28;20233;-79
2022/07/23 06:24:44;;;;;;;2.10;1.80;;;16.40;99.90;;;;;;5031884;28;20203;-79
2022/07/23 06:27:11;;;;;;;2.42;1.95;;;16.40;99.90;;;;;;5031008;28;20203;-78
2022/07/23 06:29:38;;;;;;;1.70;1.60;;;16.50;99.90;;;;;;5032053;28;20221;-77
2022/07/23 06:32:06;;;;;;;3.20;2.28;;;16.50;99.90;;;;;;5030840;28;20203;-77
2022/07/23 06:34:33;;;;;;;4.18;1.90;;;16.70;99.90;;;;;;5031863;28;20201;-77
2022/07/23 06:37:00;;;;;;;3.22;1.88;;;17.10;99.90;;;;;;5032497;28;20194;-77
2022/07/23 06:39:27;;;;;;;2.25;1.50;;;17.50;99.90;;;;;;5031578;28;20674;-78
2022/07/23 06:41:54;;;;;;;2.38;1.30;;;17.90;99.90;;;;;;5032265;28;20250;-78
2022/07/23 06:44:21;;;;;;;4.63;1.67;;;18.40;99.90;;;;;;5031550;28;20207;-79
2022/07/23 06:46:48;;;;;;;1.20;0.95;;;18.80;93.40;;;;;;5031453;28;20249;-79
2022/07/23 06:49:16;;;;;;;1.90;0.85;;;19.20;52.80;;;;;;5031952;28;20191;-76
2022/07/23 06:51:43;;;;;;;4.05;1.25;;;19.60;1.00;;;;;;5016097;28;20203;-76
2022/07/23 06:54:10;;;;;;;1.02;0.95;;;19.80;1.00;;;;;;5011378;28;20742;-78
2022/07/23 06:56:37;;;;;;;1.63;1.00;;;20.10;1.00;;;;;;5011823;28;20203;-77
2022/07/23 06:59:04;;;;;;;3.10;1.15;;;20.30;1.00;;;;;;5032177;28;20661;-76
2022/07/23 07:01:31;;;;;;;3.20;1.15;;;20.50;49.20;;;;;;5031232;28;20529;-79
2022/07/23 07:03:57;;;;;;;2.85;1.10;;;20.70;99.90;;;;;;5030528;28;20197;-77
2022/07/23 07:06:26;;;;;;;2.40;0.80;;;21.00;1.00;;;;;;5031264;28;20218;-76
2022/07/23 07:08:52;;;;;;;1.67;0.70;;;21.40;1.00;;;;;;5031139;28;20202;-77
2022/07/23 07:11:19;;;;;;;2.10;0.90;;;21.70;1.00;;;;;;5031370;28;20205;-76
2022/07/23 07:13:46;;;;;;;1.55;0.90;;;21.80;99.90;;;;;;5026910;28;20210;-77
2022/07/23 07:16:13;;;;;;;1.52;0.73;;;22.00;1.00;;;;;;5025216;28;20191;-76
2022/07/23 07:18:40;;;;;;;3.13;0.98;;;22.30;99.90;;;;;;5024557;28;20317;-75
2022/07/23 07:21:07;;;;;;;1.73;0.70;;;22.40;1.00;;;;;;5017061;28;20234;-75
2022/07/23 07:23:35;;;;;;;0.60;0.60;;;22.60;99.90;;;;;;5023214;28;20213;-76
2022/07/23 07:26:02;;;;;;;1.58;0.88;;;22.90;1.00;;;;;;5023429;28;20230;-82
2022/07/23 07:28:29;;;;;;;1.23;0.80;;;23.10;1.00;;;;;;5019999;28;20211;-77
2022/07/23 07:30:56;;;;;;;1.35;0.70;;;23.20;1.00;;;;;;5011521;28;20284;-77
2022/07/23 07:33:24;;;;;;;3.22;0.98;;;23.40;1.00;;;;;;5014436;28;20502;-77
2022/07/23 07:35:51;;;;;;;3.45;0.82;;;23.60;1.00;;;;;;5014042;28;20199;-81
2022/07/23 07:38:18;;;;;;;0.60;0.50;;;23.50;1.00;;;;;;5026138;28;20206;-77
2022/07/23 07:40:47;;;;;;;2.55;0.88;;;23.50;1.00;;;;;;5017044;28;20231;-76
2022/07/23 07:43:13;;;;;;;3.03;0.80;;;23.80;1.00;;;;;;5024224;28;20500;-77
2022/07/23 07:45:40;;;;;;;1.92;0.90;;;24.00;1.00;;;;;;5026491;28;20235;-76
2022/07/23 07:48:07;;;;;;;3.22;0.90;;;24.10;99.90;;;;;;5035325;28;20598;-77
2022/07/23 07:50:34;;;;;;;2.25;0.90;;;24.10;99.90;;;;;;5020435;28;20294;-78
2022/07/23 07:53:01;;;;;;;1.23;0.82;;;24.00;99.90;;;;;;5034921;28;20195;-77
2022/07/23 07:55:28;;;;;;;1.67;0.70;;;24.00;99.90;;;;;;5033963;28;20229;-79
2022/07/23 07:57:56;;;;;;;0.57;0.57;;;24.20;99.90;;;;;;5034449;28;20352;-79
2022/07/23 08:00:23;;;;;;;1.67;0.77;;;24.30;99.90;;;;;;5035072;28;20297;-78
2022/07/23 08:02:52;;;;;;;1.27;0.77;;;24.60;89.80;;;;;;5034343;28;20194;-79
2022/07/23 08:05:21;;;;;;;0.60;0.50;;;24.60;13.20;;;;;;5034301;28;20237;-81
2022/07/23 08:07:48;;;;;;;2.15;0.90;;;24.50;99.90;;;;;;5034642;28;20210;-80
2022/07/23 08:10:15;;;;;;;1.50;0.80;;;24.80;1.00;;;;;;5034273;28;20226;-77
2022/07/23 08:12:45;;;;;;;1.08;0.80;;;25.00;1.00;;;;;;5033347;28;20265;-77
2022/07/23 08:15:15;;;;;;;2.63;0.63;;;25.20;1.00;;;;;;5034132;28;20618;-77
2022/07/23 08:17:42;;;;;;;1.15;0.75;;;25.30;1.00;;;;;;5034377;28;20564;-79
2022/07/23 08:20:11;;;;;;;2.85;1.00;;;25.30;1.00;;;;;;5035166;28;20622;-80
2022/07/23 08:22:46;;;;;;;3.67;0.98;;;25.40;1.00;;;;;;5035211;28;20191;-79
2022/07/23 08:25:13;;;;;;;5.90;1.55;;;25.50;1.00;;;;;;5033952;28;20216;-78
2022/07/23 08:27:40;;;;;;;3.95;0.90;;;25.70;1.00;;;;;;5035413;28;20202;-79
2022/07/23 08:30:08;;;;;;;2.75;0.93;;;25.70;1.00;;;;;;5035209;28;20207;-81
2022/07/23 08:32:49;;;;;;;1.13;0.82;;;25.70;1.00;;;;;;5034534;28;20298;-83
2022/07/23 08:35:16;;;;;;;1.45;0.88;;;26.00;1.00;;;;;;5033575;28;20199;-80
2022/07/23 08:37:43;;;;;;;1.63;0.80;;;26.30;1.00;;;;;;5034328;28;20590;-80
2022/07/23 08:40:12;;;;;;;1.58;0.93;;;26.50;1.00;;;;;;5025870;28;20203;-82
2022/07/23 08:42:39;;;;;;;1.10;0.60;;;26.80;1.00;;;;;;5014218;28;20215;-77
2022/07/23 08:45:09;;;;;;;1.02;0.65;;;26.90;99.90;;;;;;5025680;28;20207;-77
2022/07/23 08:47:37;;;;;;;1.30;0.63;;;27.10;99.90;;;;;;5013488;28;20229;-79
2022/07/23 08:50:08;;;;;;;1.77;0.93;;;27.20;99.90;;;;;;5032980;28;20278;-79
2022/07/23 08:52:38;;;;;;;1.63;0.73;;;27.50;99.90;;;;;;5032762;28;20212;-81
2022/07/23 08:55:06;;;;;;;0.82;0.70;;;27.60;99.90;;;;;;5033469;28;20206;-78
2022/07/23 08:57:32;;;;;;;2.85;0.90;;;27.80;99.90;;;;;;5034398;28;20208;-79
2022/07/23 08:59:59;;;;;;;2.05;1.10;;;27.60;99.90;;;;;;5033120;28;20218;-80
2022/07/23 09:02:26;;;;;;;2.45;0.80;;;27.40;99.90;;;;;;5033204;28;20203;-79
2022/07/23 09:04:53;;;;;;;1.70;0.82;;;27.50;99.90;;;;;;5033965;28;20293;-79
2022/07/23 09:07:21;;;;;;;1.38;0.82;;;27.60;99.90;;;;;;5033250;28;20222;-79
2022/07/23 09:09:58;;;;;;;1.58;0.68;;;27.70;99.90;;;;;;5033713;28;20210;-81
2022/07/23 09:12:27;;;;;;;1.40;0.73;;;27.50;99.90;;;;;;5034474;28;20198;-79
2022/07/23 09:14:53;;;;;;;4.00;0.93;;;27.30;99.90;;;;;;5032747;28;20199;-79
2022/07/23 09:17:21;;;;;;;2.28;0.65;;;27.30;99.90;;;;;;5033565;28;20226;-78
2022/07/23 09:19:48;;;;;;;2.33;1.02;;;27.20;99.90;;;;;;5034370;28;20219;-81
2022/07/23 09:22:24;;;;;;;3.08;0.90;;;27.00;99.90;;;;;;5032231;28;20207;-78
2022/07/23 09:25:05;;;;;;;1.80;0.60;;;26.80;99.90;;;;;;5033722;28;20198;-79
2022/07/23 09:27:47;;;;;;;1.90;0.73;;;26.70;99.90;;;;;;5030833;28;20233;-81
2022/07/23 09:30:14;;;;;;;2.15;0.80;;;26.70;99.90;;;;;;5021634;28;20297;-80
2022/07/23 09:32:41;;;;;;;2.67;0.98;;;26.50;99.90;;;;;;5031671;28;20213;-78
2022/07/23 09:35:08;;;;;;;2.45;0.90;;;26.40;99.90;;;;;;5032651;28;20212;-78
2022/07/23 09:37:36;;;;;;;1.20;0.70;;;26.20;99.90;;;;;;5034950;28;20202;-78
2022/07/23 09:40:08;;;;;;;3.25;0.98;;;26.10;99.90;;;;;;5044002;28;20207;-80
2022/07/23 09:42:35;;;;;;;2.78;0.90;;;26.00;99.90;;;;;;5039129;28;20490;-81
2022/07/23 09:45:04;;;;;;;2.08;0.93;;;26.20;99.90;;;;;;5035957;28;20578;-81
2022/07/23 09:47:32;;;;;;;1.00;0.70;;;26.30;99.90;;;;;;5033816;28;20283;-80
2022/07/23 09:50:04;;;;;;;4.00;1.13;;;26.40;99.90;;;;;;5027026;28;20274;-80
2022/07/23 09:52:34;;;;;;;1.85;0.98;;;26.60;99.90;;;;;;5024929;28;20280;-81
2022/07/23 09:55:03;;;;;;;1.60;0.95;;;26.60;99.90;;;;;;5014028;28;20725;-81
2022/07/23 09:57:32;;;;;;;2.25;1.30;;;26.70;99.90;;;;;;5028258;28;20230;-79
2022/07/23 10:00:05;;;;;;;4.00;0.98;;;26.60;99.90;;;;;;5013741;28;20211;-79
2022/07/23 10:02:33;;;;;;;3.15;1.20;;;26.70;99.90;;;;;;5012971;28;20667;-80
2022/07/23 10:05:03;;;;;;;2.08;1.15;;;26.70;99.90;;;;;;5012298;28;20207;-81
2022/07/23 10:07:33;;;;;;;2.70;0.93;;;26.80;99.90;;;;;;5013348;28;20313;-79
2022/07/23 10:10:03;;;;;;;3.55;0.90;;;26.80;99.90;;;;;;5012356;28;20283;-81
2022/07/23 10:15:23;;;;;;;3.80;1.42;;;27.30;99.90;;;;;;5008738;28;20298;-82
2022/07/23 10:17:50;;;;;;;2.95;1.70;;;27.60;99.90;;;;;;5032263;28;20317;-83
2022/07/23 10:20:17;;;;;;;6.22;2.00;;;27.80;99.90;;;;;;5030962;28;20198;-81
2022/07/23 10:22:49;;;;;;;2.42;1.40;;;28.10;99.90;;;;;;5015254;28;20592;-82
2022/07/23 10:25:26;;;;;;;2.88;1.40;;;28.20;99.90;;;;;;5017045;28;20206;-81
2022/07/23 10:28:07;;;;;;;2.20;1.27;;;28.30;99.90;;;;;;5032304;28;20218;-80
2022/07/23 10:30:43;;;;;;;2.38;1.40;;;28.50;99.90;;;;;;5037371;28;20380;-82
2022/07/23 10:33:33;;;;;;;2.35;1.55;;;28.70;99.90;;;;;;5032921;28;20210;-82
2022/07/23 10:36:07;;;;;;;2.45;1.30;;;28.60;99.90;;;;;;5032450;28;20285;-79
2022/07/23 10:38:43;;;;;;;4.47;1.70;;;28.60;99.90;;;;;;5031851;28;20194;-80
2022/07/23 10:41:12;;;;;;;3.78;1.48;;;28.30;99.90;;;;;;5032576;28;20222;-80
2022/07/23 10:43:39;;;;;;;2.63;1.30;;;28.30;99.90;;;;;;5032296;28;20209;-80
2022/07/23 10:46:25;;;;;;;3.28;1.40;;;28.10;99.90;;;;;;5031105;28;20595;-79
2022/07/23 10:49:25;;;;;;;2.13;1.15;;;27.80;99.90;;;;;;5031540;28;20198;-81
2022/07/23 10:52:19;;;;;;;1.10;0.90;;;27.60;99.90;;;;;;5032100;28;20580;-80
2022/07/23 10:54:49;;;;;;;3.40;1.67;;;27.60;99.90;;;;;;5032166;28;20481;-81
2022/07/23 10:57:18;;;;;;;3.92;1.75;;;27.50;99.90;;;;;;5032000;28;20194;-80
2022/07/23 11:00:17;;;;;;;3.72;1.38;;;27.50;99.90;;;;;;5012402;28;20207;-81
2022/07/23 11:02:46;;;;;;;2.88;1.60;;;27.60;99.90;;;;;;5012845;28;20199;-80
2022/07/23 11:05:14;;;;;;;2.72;1.65;;;27.50;99.90;;;;;;5012885;28;20206;-79
2022/07/23 11:08:14;;;;;;;3.45;1.77;;;27.50;99.90;;;;;;5015230;28;20222;-80
2022/07/23 11:10:43;;;;;;;3.53;2.30;;;27.30;99.90;;;;;;5012809;28;20262;-82
2022/07/23 11:13:53;;;;;;;3.55;1.77;;;27.30;99.90;;;;;;5012598;28;20203;-83
2022/07/23 11:16:26;;;;;;;3.47;1.98;;;27.50;99.90;;;;;;5013066;28;20191;-83
2022/07/23 11:19:07;;;;;;;4.47;2.00;;;27.70;99.90;;;;;;5012812;28;20227;-82
2022/07/23 11:21:52;;;;;;;4.82;1.77;;;27.90;99.90;;;;;;5012907;28;20278;-84
2022/07/23 11:24:23;;;;;;;2.38;1.60;;;28.10;99.90;;;;;;5032786;28;20187;-85
2022/07/23 11:26:59;;;;;;;3.53;1.60;;;28.10;99.90;;;;;;5031826;28;20226;-80
2022/07/23 11:29:40;;;;;;;2.38;1.42;;;28.00;99.90;;;;;;5031007;28;20210;-82
2022/07/23 11:32:18;;;;;;;2.95;1.45;;;28.10;99.90;;;;;;5032485;28;20273;-82
2022/07/23 11:34:47;;;;;;;2.55;0.95;;;28.10;99.90;;;;;;5032222;28;20193;-80
2022/07/23 11:37:29;;;;;;;2.28;0.80;;;28.20;99.90;;;;;;5031534;28;20207;-81
2022/07/23 11:39:57;;;;;;;2.35;0.80;;;28.30;99.90;;;;;;5030733;28;20624;-80
2022/07/23 11:42:24;;;;;;;1.58;1.00;;;28.20;99.90;;;;;;5031321;28;20210;-80
2022/07/23 11:44:52;;;;;;;2.30;0.90;;;28.10;99.90;;;;;;5030595;28;20205;-83
2022/07/23 11:47:24;;;;;;;1.70;1.00;;;28.10;99.90;;;;;;5031545;28;20230;-80
2022/07/23 11:49:56;;;;;;;1.83;0.80;;;28.20;99.90;;;;;;5031107;28;20206;-79
2022/07/23 11:52:23;;;;;;;2.90;0.90;;;28.10;99.90;;;;;;5032220;28;20199;-81
2022/07/23 11:54:52;;;;;;;1.63;1.15;;;27.80;99.90;;;;;;5031126;28;20242;-81
2022/07/23 11:57:20;;;;;;;2.65;1.20;;;27.70;99.90;;;;;;5031410;28;20198;-80
2022/07/23 11:59:50;;;;;;;2.13;0.75;;;27.80;99.90;;;;;;5031567;28;20300;-81
2022/07/23 12:02:17;;;;;;;1.63;0.90;;;27.70;99.90;;;;;;5023571;28;20191;-80
2022/07/23 12:04:47;;;;;;;1.35;0.57;;;27.40;99.90;;;;;;5011587;28;20290;-80
2022/07/23 12:07:30;;;;;;;2.28;0.85;;;27.30;99.90;;;;;;5029227;28;20305;-80
2022/07/23 12:09:58;;;;;;;3.17;1.35;;;27.40;99.90;;;;;;5032223;28;20280;-78
2022/07/23 12:12:25;;;;;;;4.65;1.50;;;27.30;99.90;;;;;;5032253;28;20534;-80
2022/07/23 12:14:53;;;;;;;1.45;0.95;;;27.30;99.90;;;;;;5032376;28;20578;-81
2022/07/23 12:17:21;;;;;;;1.63;1.13;;;27.50;99.90;;;;;;5031026;28;20231;-79
2022/07/23 12:19:50;;;;;;;2.67;2.28;;;27.60;99.90;;;;;;5031400;28;20232;-79
2022/07/23 12:22:17;;;;;;;2.60;2.00;;;27.40;99.90;;;;;;5031684;28;20537;-80
2022/07/23 12:24:58;;;;;;;3.45;1.38;;;27.40;99.90;;;;;;5033195;28;20213;-79
2022/07/23 12:27:25;;;;;;;3.75;1.40;;;27.40;99.90;;;;;;5027035;28;20333;-80
2022/07/23 12:29:52;;;;;;;2.35;1.35;;;27.50;99.90;;;;;;5030532;28;20214;-79
2022/07/23 12:32:23;;;;;;;3.53;1.30;;;27.70;99.90;;;;;;5034072;28;20578;-84
2022/07/23 12:35:03;;;;;;;3.67;1.65;;;27.80;99.90;;;;;;5029528;28;20191;-80
2022/07/23 12:37:32;;;;;;;2.08;1.58;;;27.70;99.90;;;;;;5018155;28;20206;-81
2022/07/23 12:39:59;;;;;;;3.05;1.30;;;27.50;99.90;;;;;;5018357;28;20211;-82
2022/07/23 12:42:26;;;;;;;1.45;1.00;;;27.50;99.90;;;;;;5041159;22;20230;-81
2022/07/23 12:45:07;;;;;;;3.22;2.85;;;27.50;99.90;;;;;;5034458;28;20195;-81
2022/07/23 12:47:58;;;;;;;2.28;1.38;;;27.50;99.90;;;;;;5033832;28;20222;-79
2022/07/23 12:50:44;;;;;;;3.47;1.40;;;27.50;99.90;;;;;;5034900;28;20249;-81
2022/07/23 12:53:15;;;;;;;2.78;0.93;;;27.30;99.90;;;;;;5014700;28;20843;-81
2022/07/23 12:55:43;;;;;;;2.63;1.00;;;27.20;99.90;;;;;;5019530;28;20203;-79
2022/07/23 12:58:16;;;;;;;3.80;2.92;;;27.00;99.90;;;;;;5034442;28;20199;-82
2022/07/23 13:01:06;;;;;;;8.98;7.10;;;27.00;99.90;;;;;;5034181;28;20211;-79